sensor_id;sensor_type;location;lat;lon;timestamp;P1;durP1;ratioP1;P2;durP2;ratioP2
12253;SDS011;6189;52.526;13.390;2022-08-19T00:00:15;9.83;;;9.03;;
12253;SDS011;6189;52.526;13.390;2022-08-19T00:03:01;10.83;;;9.80;;
12253;SDS011;6189;52.526;13.390;2022-08-19T00:05:47;11.63;;;10.33;;
12253;SDS011;6189;52.526;13.390;2022-08-19T00:08:34;11.57;;;10.67;;
12253;SDS011;6189;52.526;13.390;2022-08-19T00:11:19;9.47;;;8.57;;
12253;SDS011;6189;52.526;13.390;2022-08-19T00:14:06;10.20;;;9.40;;
12253;SDS011;6189;52.526;13.390;2022-08-19T00:16:54;11.77;;;10.67;;
12253;SDS011;6189;52.526;13.390;2022-08-19T00:19:40;11.10;;;10.07;;
12253;SDS011;6189;52.526;13.390;2022-08-19T00:22:25;11.43;;;10.43;;
12253;SDS011;6189;52.526;13.390;2022-08-19T00:25:13;11.03;;;10.13;;
12253;SDS011;6189;52.526;13.390;2022-08-19T00:28:00;10.50;;;9.50;;
12253;SDS011;6189;52.526;13.390;2022-08-19T00:30:45;9.47;;;8.63;;
12253;SDS011;6189;52.526;13.390;2022-08-19T00:33:31;10.20;;;9.40;;
12253;SDS011;6189;52.526;13.390;2022-08-19T00:36:17;11.80;;;10.60;;
12253;SDS011;6189;52.526;13.390;2022-08-19T00:39:04;10.30;;;9.43;;
12253;SDS011;6189;52.526;13.390;2022-08-19T00:41:51;12.57;;;10.83;;
12253;SDS011;6189;52.526;13.390;2022-08-19T00:44:37;12.53;;;11.37;;
12253;SDS011;6189;52.526;13.390;2022-08-19T00:47:23;10.60;;;9.70;;
12253;SDS011;6189;52.526;13.390;2022-08-19T00:50:09;11.30;;;10.30;;
12253;SDS011;6189;52.526;13.390;2022-08-19T00:52:57;10.80;;;9.90;;
12253;SDS011;6189;52.526;13.390;2022-08-19T00:55:44;10.50;;;9.50;;
12253;SDS011;6189;52.526;13.390;2022-08-19T00:58:32;11.10;;;10.03;;
12253;SDS011;6189;52.526;13.390;2022-08-19T01:01:19;11.93;;;10.80;;
12253;SDS011;6189;52.526;13.390;2022-08-19T01:04:04;10.37;;;9.47;;
12253;SDS011;6189;52.526;13.390;2022-08-19T01:06:50;11.60;;;10.60;;
12253;SDS011;6189;52.526;13.390;2022-08-19T01:09:35;13.13;;;11.93;;
12253;SDS011;6189;52.526;13.390;2022-08-19T01:12:21;14.43;;;13.13;;
12253;SDS011;6189;52.526;13.390;2022-08-19T01:15:09;13.17;;;12.00;;
12253;SDS011;6189;52.526;13.390;2022-08-19T01:17:58;12.93;;;11.83;;
12253;SDS011;6189;52.526;13.390;2022-08-19T01:20:46;11.50;;;10.57;;
12253;SDS011;6189;52.526;13.390;2022-08-19T01:23:33;12.43;;;11.33;;
12253;SDS011;6189;52.526;13.390;2022-08-19T01:26:28;11.67;;;10.67;;
12253;SDS011;6189;52.526;13.390;2022-08-19T01:29:14;11.90;;;11.00;;
12253;SDS011;6189;52.526;13.390;2022-08-19T01:32:00;11.70;;;10.80;;
12253;SDS011;6189;52.526;13.390;2022-08-19T01:34:46;12.30;;;11.13;;
12253;SDS011;6189;52.526;13.390;2022-08-19T01:37:41;12.10;;;11.00;;
12253;SDS011;6189;52.526;13.390;2022-08-19T01:40:29;11.83;;;10.83;;
12253;SDS011;6189;52.526;13.390;2022-08-19T01:43:17;11.30;;;10.40;;
12253;SDS011;6189;52.526;13.390;2022-08-19T01:46:04;12.00;;;11.00;;
12253;SDS011;6189;52.526;13.390;2022-08-19T01:48:50;11.03;;;10.00;;
12253;SDS011;6189;52.526;13.390;2022-08-19T01:51:36;11.77;;;10.53;;
12253;SDS011;6189;52.526;13.390;2022-08-19T01:54:22;13.03;;;11.90;;
12253;SDS011;6189;52.526;13.390;2022-08-19T01:57:10;13.30;;;12.00;;
12253;SDS011;6189;52.526;13.390;2022-08-19T01:59:58;11.83;;;10.63;;
12253;SDS011;6189;52.526;13.390;2022-08-19T02:02:47;14.00;;;12.77;;
12253;SDS011;6189;52.526;13.390;2022-08-19T02:05:32;14.53;;;13.20;;
12253;SDS011;6189;52.526;13.390;2022-08-19T02:08:18;14.93;;;13.03;;
12253;SDS011;6189;52.526;13.390;2022-08-19T02:11:03;11.90;;;10.90;;
12253;SDS011;6189;52.526;13.390;2022-08-19T02:13:51;13.67;;;12.47;;
12253;SDS011;6189;52.526;13.390;2022-08-19T02:16:37;13.87;;;12.57;;
12253;SDS011;6189;52.526;13.390;2022-08-19T02:19:24;14.20;;;12.80;;
12253;SDS011;6189;52.526;13.390;2022-08-19T02:22:10;14.77;;;13.40;;
12253;SDS011;6189;52.526;13.390;2022-08-19T02:24:55;13.90;;;12.80;;
12253;SDS011;6189;52.526;13.390;2022-08-19T02:27:41;12.90;;;11.90;;
12253;SDS011;6189;52.526;13.390;2022-08-19T02:30:28;12.60;;;11.63;;
12253;SDS011;6189;52.526;13.390;2022-08-19T02:33:14;13.00;;;11.77;;
12253;SDS011;6189;52.526;13.390;2022-08-19T02:36:02;13.23;;;11.93;;
12253;SDS011;6189;52.526;13.390;2022-08-19T02:38:48;12.20;;;11.20;;
12253;SDS011;6189;52.526;13.390;2022-08-19T02:41:33;11.70;;;10.60;;
12253;SDS011;6189;52.526;13.390;2022-08-19T02:44:19;11.03;;;10.13;;
12253;SDS011;6189;52.526;13.390;2022-08-19T02:47:06;12.33;;;11.23;;
12253;SDS011;6189;52.526;13.390;2022-08-19T02:49:51;11.83;;;10.83;;
12253;SDS011;6189;52.526;13.390;2022-08-19T02:52:37;11.70;;;10.80;;
12253;SDS011;6189;52.526;13.390;2022-08-19T02:55:23;11.53;;;10.53;;
12253;SDS011;6189;52.526;13.390;2022-08-19T02:58:09;13.20;;;12.10;;
12253;SDS011;6189;52.526;13.390;2022-08-19T03:00:55;12.47;;;11.40;;
12253;SDS011;6189;52.526;13.390;2022-08-19T03:03:42;12.23;;;11.27;;
12253;SDS011;6189;52.526;13.390;2022-08-19T03:06:28;12.40;;;11.40;;
12253;SDS011;6189;52.526;13.390;2022-08-19T03:09:14;12.53;;;11.33;;
12253;SDS011;6189;52.526;13.390;2022-08-19T03:12:01;12.17;;;11.17;;
12253;SDS011;6189;52.526;13.390;2022-08-19T03:14:48;12.67;;;11.63;;
12253;SDS011;6189;52.526;13.390;2022-08-19T03:17:34;12.80;;;11.67;;
12253;SDS011;6189;52.526;13.390;2022-08-19T03:20:21;12.43;;;11.33;;
12253;SDS011;6189;52.526;13.390;2022-08-19T03:23:07;15.17;;;13.70;;
12253;SDS011;6189;52.526;13.390;2022-08-19T03:25:52;14.37;;;13.23;;
12253;SDS011;6189;52.526;13.390;2022-08-19T03:28:38;13.83;;;12.73;;
12253;SDS011;6189;52.526;13.390;2022-08-19T03:31:24;13.97;;;12.77;;
12253;SDS011;6189;52.526;13.390;2022-08-19T03:34:11;13.00;;;11.90;;
12253;SDS011;6189;52.526;13.390;2022-08-19T03:37:03;13.30;;;12.10;;
12253;SDS011;6189;52.526;13.390;2022-08-19T03:39:50;13.97;;;12.87;;
12253;SDS011;6189;52.526;13.390;2022-08-19T03:42:35;13.53;;;12.43;;
12253;SDS011;6189;52.526;13.390;2022-08-19T03:45:21;12.87;;;11.77;;
12253;SDS011;6189;52.526;13.390;2022-08-19T03:48:07;13.77;;;12.67;;
12253;SDS011;6189;52.526;13.390;2022-08-19T03:50:53;13.07;;;12.07;;
12253;SDS011;6189;52.526;13.390;2022-08-19T03:53:40;12.63;;;11.50;;
12253;SDS011;6189;52.526;13.390;2022-08-19T03:56:26;12.67;;;11.57;;
12253;SDS011;6189;52.526;13.390;2022-08-19T03:59:15;12.20;;;11.20;;
12253;SDS011;6189;52.526;13.390;2022-08-19T04:02:04;12.77;;;11.50;;
12253;SDS011;6189;52.526;13.390;2022-08-19T04:04:53;12.13;;;11.13;;
12253;SDS011;6189;52.526;13.390;2022-08-19T04:07:39;13.40;;;12.20;;
12253;SDS011;6189;52.526;13.390;2022-08-19T04:10:26;11.47;;;10.47;;
12253;SDS011;6189;52.526;13.390;2022-08-19T04:13:12;11.60;;;10.63;;
12253;SDS011;6189;52.526;13.390;2022-08-19T04:15:58;11.87;;;10.87;;
12253;SDS011;6189;52.526;13.390;2022-08-19T04:18:43;12.83;;;11.67;;
12253;SDS011;6189;52.526;13.390;2022-08-19T04:21:28;13.10;;;12.10;;
12253;SDS011;6189;52.526;13.390;2022-08-19T04:24:14;12.47;;;11.47;;
12253;SDS011;6189;52.526;13.390;2022-08-19T04:27:01;11.07;;;10.17;;
12253;SDS011;6189;52.526;13.390;2022-08-19T04:29:49;12.10;;;10.87;;
12253;SDS011;6189;52.526;13.390;2022-08-19T04:32:34;11.93;;;10.77;;
12253;SDS011;6189;52.526;13.390;2022-08-19T04:35:19;12.30;;;11.20;;
12253;SDS011;6189;52.526;13.390;2022-08-19T04:38:05;11.03;;;10.13;;
12253;SDS011;6189;52.526;13.390;2022-08-19T04:40:51;12.50;;;11.33;;
12253;SDS011;6189;52.526;13.390;2022-08-19T04:43:56;11.63;;;10.43;;
12253;SDS011;6189;52.526;13.390;2022-08-19T04:46:42;12.20;;;11.10;;
12253;SDS011;6189;52.526;13.390;2022-08-19T04:49:28;13.20;;;12.13;;
12253;SDS011;6189;52.526;13.390;2022-08-19T04:52:13;11.90;;;10.80;;
12253;SDS011;6189;52.526;13.390;2022-08-19T04:54:59;11.70;;;10.70;;
12253;SDS011;6189;52.526;13.390;2022-08-19T04:57:44;11.73;;;10.73;;
12253;SDS011;6189;52.526;13.390;2022-08-19T05:00:31;12.30;;;11.40;;
12253;SDS011;6189;52.526;13.390;2022-08-19T05:03:17;10.87;;;9.87;;
12253;SDS011;6189;52.526;13.390;2022-08-19T05:06:04;12.90;;;11.67;;
12253;SDS011;6189;52.526;13.390;2022-08-19T05:08:50;12.03;;;11.13;;
12253;SDS011;6189;52.526;13.390;2022-08-19T05:11:37;11.53;;;10.63;;
12253;SDS011;6189;52.526;13.390;2022-08-19T05:14:23;11.83;;;10.93;;
12253;SDS011;6189;52.526;13.390;2022-08-19T05:17:10;11.93;;;10.93;;
12253;SDS011;6189;52.526;13.390;2022-08-19T05:19:55;12.30;;;10.57;;
12253;SDS011;6189;52.526;13.390;2022-08-19T05:22:59;11.77;;;10.70;;
12253;SDS011;6189;52.526;13.390;2022-08-19T05:25:45;12.70;;;11.37;;
12253;SDS011;6189;52.526;13.390;2022-08-19T05:28:30;12.03;;;11.07;;
12253;SDS011;6189;52.526;13.390;2022-08-19T05:31:15;11.60;;;10.60;;
12253;SDS011;6189;52.526;13.390;2022-08-19T05:34:03;11.83;;;10.83;;
12253;SDS011;6189;52.526;13.390;2022-08-19T05:36:49;11.10;;;10.10;;
12253;SDS011;6189;52.526;13.390;2022-08-19T05:39:40;12.27;;;11.23;;
12253;SDS011;6189;52.526;13.390;2022-08-19T05:42:25;11.47;;;10.40;;
12253;SDS011;6189;52.526;13.390;2022-08-19T05:45:11;11.40;;;10.50;;
12253;SDS011;6189;52.526;13.390;2022-08-19T05:47:57;12.93;;;11.80;;
12253;SDS011;6189;52.526;13.390;2022-08-19T05:50:44;11.50;;;10.50;;
12253;SDS011;6189;52.526;13.390;2022-08-19T05:53:30;11.70;;;10.77;;
12253;SDS011;6189;52.526;13.390;2022-08-19T05:56:16;12.53;;;11.33;;
12253;SDS011;6189;52.526;13.390;2022-08-19T05:59:03;11.23;;;10.33;;
12253;SDS011;6189;52.526;13.390;2022-08-19T06:01:53;11.23;;;10.40;;
12253;SDS011;6189;52.526;13.390;2022-08-19T06:04:40;12.00;;;11.00;;
12253;SDS011;6189;52.526;13.390;2022-08-19T06:07:28;12.47;;;11.30;;
12253;SDS011;6189;52.526;13.390;2022-08-19T06:10:14;12.17;;;11.17;;
12253;SDS011;6189;52.526;13.390;2022-08-19T06:12:59;11.93;;;10.93;;
12253;SDS011;6189;52.526;13.390;2022-08-19T06:15:44;13.80;;;12.67;;
12253;SDS011;6189;52.526;13.390;2022-08-19T06:18:30;11.40;;;10.60;;
12253;SDS011;6189;52.526;13.390;2022-08-19T06:21:17;13.10;;;11.90;;
12253;SDS011;6189;52.526;13.390;2022-08-19T06:24:05;12.43;;;11.30;;
12253;SDS011;6189;52.526;13.390;2022-08-19T06:26:53;13.47;;;12.37;;
12253;SDS011;6189;52.526;13.390;2022-08-19T06:29:40;14.17;;;12.80;;
12253;SDS011;6189;52.526;13.390;2022-08-19T06:32:26;14.13;;;12.93;;
12253;SDS011;6189;52.526;13.390;2022-08-19T06:35:12;14.63;;;13.13;;
12253;SDS011;6189;52.526;13.390;2022-08-19T06:37:58;15.07;;;13.67;;
12253;SDS011;6189;52.526;13.390;2022-08-19T06:40:45;13.87;;;12.47;;
12253;SDS011;6189;52.526;13.390;2022-08-19T06:43:31;13.70;;;12.47;;
12253;SDS011;6189;52.526;13.390;2022-08-19T06:46:17;15.13;;;13.70;;
12253;SDS011;6189;52.526;13.390;2022-08-19T06:49:03;13.60;;;12.50;;
12253;SDS011;6189;52.526;13.390;2022-08-19T06:51:52;13.60;;;12.40;;
12253;SDS011;6189;52.526;13.390;2022-08-19T06:54:40;14.17;;;13.03;;
12253;SDS011;6189;52.526;13.390;2022-08-19T06:57:28;14.37;;;13.07;;
12253;SDS011;6189;52.526;13.390;2022-08-19T07:00:16;13.53;;;12.53;;
12253;SDS011;6189;52.526;13.390;2022-08-19T07:03:01;13.87;;;12.77;;
12253;SDS011;6189;52.526;13.390;2022-08-19T07:05:47;14.77;;;13.47;;
12253;SDS011;6189;52.526;13.390;2022-08-19T07:08:33;14.97;;;13.57;;
12253;SDS011;6189;52.526;13.390;2022-08-19T07:11:19;15.73;;;14.37;;
12253;SDS011;6189;52.526;13.390;2022-08-19T07:14:06;15.10;;;13.73;;
12253;SDS011;6189;52.526;13.390;2022-08-19T07:16:53;15.27;;;13.73;;
12253;SDS011;6189;52.526;13.390;2022-08-19T07:19:40;14.80;;;13.50;;
12253;SDS011;6189;52.526;13.390;2022-08-19T07:22:27;14.73;;;13.63;;
12253;SDS011;6189;52.526;13.390;2022-08-19T07:25:13;14.43;;;13.13;;
12253;SDS011;6189;52.526;13.390;2022-08-19T07:28:00;14.83;;;13.63;;
12253;SDS011;6189;52.526;13.390;2022-08-19T07:30:47;15.63;;;14.10;;
12253;SDS011;6189;52.526;13.390;2022-08-19T07:33:33;16.93;;;15.30;;
12253;SDS011;6189;52.526;13.390;2022-08-19T07:36:21;16.07;;;14.87;;
12253;SDS011;6189;52.526;13.390;2022-08-19T07:39:09;14.80;;;13.63;;
12253;SDS011;6189;52.526;13.390;2022-08-19T07:41:59;15.87;;;14.63;;
12253;SDS011;6189;52.526;13.390;2022-08-19T07:44:47;15.50;;;14.10;;
12253;SDS011;6189;52.526;13.390;2022-08-19T07:47:34;13.73;;;12.63;;
12253;SDS011;6189;52.526;13.390;2022-08-19T07:50:21;15.17;;;13.97;;
12253;SDS011;6189;52.526;13.390;2022-08-19T07:53:06;15.57;;;14.37;;
12253;SDS011;6189;52.526;13.390;2022-08-19T07:55:52;15.77;;;14.10;;
12253;SDS011;6189;52.526;13.390;2022-08-19T07:58:39;17.00;;;15.60;;
12253;SDS011;6189;52.526;13.390;2022-08-19T08:01:26;15.97;;;14.67;;
12253;SDS011;6189;52.526;13.390;2022-08-19T08:04:13;18.10;;;16.50;;
12253;SDS011;6189;52.526;13.390;2022-08-19T08:07:17;16.90;;;15.40;;
12253;SDS011;6189;52.526;13.390;2022-08-19T08:10:20;18.63;;;17.23;;
12253;SDS011;6189;52.526;13.390;2022-08-19T08:13:06;16.90;;;15.57;;
12253;SDS011;6189;52.526;13.390;2022-08-19T08:15:51;16.37;;;14.97;;
12253;SDS011;6189;52.526;13.390;2022-08-19T08:18:37;17.67;;;16.17;;
12253;SDS011;6189;52.526;13.390;2022-08-19T08:21:27;17.13;;;15.77;;
12253;SDS011;6189;52.526;13.390;2022-08-19T08:24:13;16.47;;;15.07;;
12253;SDS011;6189;52.526;13.390;2022-08-19T08:26:59;17.13;;;15.63;;
12253;SDS011;6189;52.526;13.390;2022-08-19T08:29:45;19.20;;;17.70;;
12253;SDS011;6189;52.526;13.390;2022-08-19T08:32:32;18.83;;;17.33;;
12253;SDS011;6189;52.526;13.390;2022-08-19T08:35:21;19.10;;;17.40;;
12253;SDS011;6189;52.526;13.390;2022-08-19T08:38:10;20.73;;;18.83;;
12253;SDS011;6189;52.526;13.390;2022-08-19T08:40:57;17.67;;;16.17;;
12253;SDS011;6189;52.526;13.390;2022-08-19T08:43:48;17.87;;;16.47;;
12253;SDS011;6189;52.526;13.390;2022-08-19T08:46:36;17.90;;;16.47;;
12253;SDS011;6189;52.526;13.390;2022-08-19T08:49:28;19.30;;;17.60;;
12253;SDS011;6189;52.526;13.390;2022-08-19T08:52:27;20.73;;;18.60;;
12253;SDS011;6189;52.526;13.390;2022-08-19T08:55:17;20.50;;;18.90;;
12253;SDS011;6189;52.526;13.390;2022-08-19T08:58:06;19.13;;;17.53;;
12253;SDS011;6189;52.526;13.390;2022-08-19T09:00:57;22.00;;;20.00;;
12253;SDS011;6189;52.526;13.390;2022-08-19T09:03:43;19.60;;;17.87;;
12253;SDS011;6189;52.526;13.390;2022-08-19T09:06:32;20.07;;;18.27;;
12253;SDS011;6189;52.526;13.390;2022-08-19T09:09:25;19.67;;;18.10;;
12253;SDS011;6189;52.526;13.390;2022-08-19T09:12:18;18.80;;;17.13;;
12253;SDS011;6189;52.526;13.390;2022-08-19T09:15:10;19.60;;;17.90;;
12253;SDS011;6189;52.526;13.390;2022-08-19T09:18:10;18.33;;;16.80;;
12253;SDS011;6189;52.526;13.390;2022-08-19T09:20:56;19.70;;;17.73;;
12253;SDS011;6189;52.526;13.390;2022-08-19T09:23:42;18.70;;;17.10;;
12253;SDS011;6189;52.526;13.390;2022-08-19T09:26:27;20.13;;;18.43;;
12253;SDS011;6189;52.526;13.390;2022-08-19T09:29:15;17.47;;;16.00;;
12253;SDS011;6189;52.526;13.390;2022-08-19T09:32:01;18.20;;;16.63;;
12253;SDS011;6189;52.526;13.390;2022-08-19T09:34:47;18.13;;;16.53;;
12253;SDS011;6189;52.526;13.390;2022-08-19T09:37:33;17.43;;;15.83;;
12253;SDS011;6189;52.526;13.390;2022-08-19T09:40:19;16.63;;;15.30;;
12253;SDS011;6189;52.526;13.390;2022-08-19T09:43:04;18.20;;;16.43;;
12253;SDS011;6189;52.526;13.390;2022-08-19T09:45:53;18.20;;;16.60;;
12253;SDS011;6189;52.526;13.390;2022-08-19T09:48:39;16.73;;;15.43;;
12253;SDS011;6189;52.526;13.390;2022-08-19T09:51:26;18.93;;;17.23;;
12253;SDS011;6189;52.526;13.390;2022-08-19T09:54:14;17.77;;;16.37;;
12253;SDS011;6189;52.526;13.390;2022-08-19T09:56:59;18.13;;;16.57;;
12253;SDS011;6189;52.526;13.390;2022-08-19T09:59:45;17.80;;;16.27;;
12253;SDS011;6189;52.526;13.390;2022-08-19T10:02:33;16.20;;;14.93;;
12253;SDS011;6189;52.526;13.390;2022-08-19T10:05:20;17.13;;;15.73;;
12253;SDS011;6189;52.526;13.390;2022-08-19T10:08:24;16.17;;;14.87;;
12253;SDS011;6189;52.526;13.390;2022-08-19T10:11:11;18.63;;;16.70;;
12253;SDS011;6189;52.526;13.390;2022-08-19T10:13:59;17.10;;;15.70;;
12253;SDS011;6189;52.526;13.390;2022-08-19T10:16:45;17.40;;;15.90;;
12253;SDS011;6189;52.526;13.390;2022-08-19T10:19:32;16.90;;;15.40;;
12253;SDS011;6189;52.526;13.390;2022-08-19T10:22:19;17.60;;;15.80;;
12253;SDS011;6189;52.526;13.390;2022-08-19T10:25:06;16.57;;;15.27;;
12253;SDS011;6189;52.526;13.390;2022-08-19T10:27:52;17.17;;;15.73;;
12253;SDS011;6189;52.526;13.390;2022-08-19T10:30:38;16.67;;;15.07;;
12253;SDS011;6189;52.526;13.390;2022-08-19T10:33:24;18.30;;;16.70;;
12253;SDS011;6189;52.526;13.390;2022-08-19T10:36:14;17.03;;;15.50;;
12253;SDS011;6189;52.526;13.390;2022-08-19T10:39:03;17.00;;;15.57;;
12253;SDS011;6189;52.526;13.390;2022-08-19T10:41:49;17.27;;;15.73;;
12253;SDS011;6189;52.526;13.390;2022-08-19T10:44:35;17.17;;;15.77;;
12253;SDS011;6189;52.526;13.390;2022-08-19T10:47:21;17.00;;;15.60;;
12253;SDS011;6189;52.526;13.390;2022-08-19T10:50:07;15.80;;;14.40;;
12253;SDS011;6189;52.526;13.390;2022-08-19T10:53:08;17.03;;;15.63;;
12253;SDS011;6189;52.526;13.390;2022-08-19T10:55:53;16.77;;;15.37;;
12253;SDS011;6189;52.526;13.390;2022-08-19T10:58:57;18.07;;;16.37;;
12253;SDS011;6189;52.526;13.390;2022-08-19T11:01:44;16.67;;;15.07;;
12253;SDS011;6189;52.526;13.390;2022-08-19T11:04:30;17.93;;;16.27;;
12253;SDS011;6189;52.526;13.390;2022-08-19T11:07:17;15.77;;;14.23;;
12253;SDS011;6189;52.526;13.390;2022-08-19T11:10:04;17.30;;;15.53;;
12253;SDS011;6189;52.526;13.390;2022-08-19T11:12:50;16.27;;;14.97;;
12253;SDS011;6189;52.526;13.390;2022-08-19T11:15:38;16.17;;;14.87;;
12253;SDS011;6189;52.526;13.390;2022-08-19T11:18:24;18.33;;;16.63;;
12253;SDS011;6189;52.526;13.390;2022-08-19T11:21:11;16.43;;;15.03;;
12253;SDS011;6189;52.526;13.390;2022-08-19T11:23:58;16.03;;;14.77;;
12253;SDS011;6189;52.526;13.390;2022-08-19T11:26:48;16.60;;;15.00;;
12253;SDS011;6189;52.526;13.390;2022-08-19T11:29:37;16.50;;;15.10;;
12253;SDS011;6189;52.526;13.390;2022-08-19T11:32:23;15.17;;;13.97;;
12253;SDS011;6189;52.526;13.390;2022-08-19T11:35:09;16.03;;;14.50;;
12253;SDS011;6189;52.526;13.390;2022-08-19T11:37:55;15.77;;;14.27;;
12253;SDS011;6189;52.526;13.390;2022-08-19T11:40:42;15.67;;;14.27;;
12253;SDS011;6189;52.526;13.390;2022-08-19T11:43:30;15.53;;;14.03;;
12253;SDS011;6189;52.526;13.390;2022-08-19T11:46:16;14.80;;;13.40;;
12253;SDS011;6189;52.526;13.390;2022-08-19T11:49:02;13.93;;;12.83;;
12253;SDS011;6189;52.526;13.390;2022-08-19T11:51:51;13.23;;;12.23;;
12253;SDS011;6189;52.526;13.390;2022-08-19T11:54:37;14.60;;;13.10;;
12253;SDS011;6189;52.526;13.390;2022-08-19T11:57:22;12.70;;;11.60;;
12253;SDS011;6189;52.526;13.390;2022-08-19T12:00:10;13.43;;;12.30;;
12253;SDS011;6189;52.526;13.390;2022-08-19T12:02:57;11.87;;;10.90;;
12253;SDS011;6189;52.526;13.390;2022-08-19T12:05:42;13.23;;;12.03;;
12253;SDS011;6189;52.526;13.390;2022-08-19T12:08:28;12.57;;;11.50;;
12253;SDS011;6189;52.526;13.390;2022-08-19T12:11:13;13.03;;;11.83;;
12253;SDS011;6189;52.526;13.390;2022-08-19T12:14:00;12.77;;;11.67;;
12253;SDS011;6189;52.526;13.390;2022-08-19T12:16:47;13.53;;;12.20;;
12253;SDS011;6189;52.526;13.390;2022-08-19T12:19:33;12.27;;;11.33;;
12253;SDS011;6189;52.526;13.390;2022-08-19T12:22:20;13.17;;;12.07;;
12253;SDS011;6189;52.526;13.390;2022-08-19T12:25:05;12.00;;;10.90;;
12253;SDS011;6189;52.526;13.390;2022-08-19T12:27:51;12.17;;;11.17;;
12253;SDS011;6189;52.526;13.390;2022-08-19T12:30:42;11.97;;;10.87;;
12253;SDS011;6189;52.526;13.390;2022-08-19T12:33:29;11.37;;;10.23;;
12253;SDS011;6189;52.526;13.390;2022-08-19T12:36:15;10.17;;;9.37;;
12253;SDS011;6189;52.526;13.390;2022-08-19T12:39:01;11.43;;;10.50;;
12253;SDS011;6189;52.526;13.390;2022-08-19T12:41:48;11.13;;;10.23;;
12253;SDS011;6189;52.526;13.390;2022-08-19T12:44:33;10.73;;;9.70;;
12253;SDS011;6189;52.526;13.390;2022-08-19T12:47:19;10.17;;;9.20;;
12253;SDS011;6189;52.526;13.390;2022-08-19T12:50:07;10.17;;;9.37;;
12253;SDS011;6189;52.526;13.390;2022-08-19T12:52:53;10.70;;;9.60;;
12253;SDS011;6189;52.526;13.390;2022-08-19T12:55:38;11.10;;;10.03;;
12253;SDS011;6189;52.526;13.390;2022-08-19T12:58:24;10.93;;;10.03;;
12253;SDS011;6189;52.526;13.390;2022-08-19T13:01:10;12.20;;;11.20;;
12253;SDS011;6189;52.526;13.390;2022-08-19T13:03:56;11.47;;;10.47;;
12253;SDS011;6189;52.526;13.390;2022-08-19T13:06:43;11.93;;;10.93;;
12253;SDS011;6189;52.526;13.390;2022-08-19T13:09:29;12.40;;;11.30;;
12253;SDS011;6189;52.526;13.390;2022-08-19T13:12:15;12.70;;;11.53;;
12253;SDS011;6189;52.526;13.390;2022-08-19T13:15:00;12.50;;;11.53;;
12253;SDS011;6189;52.526;13.390;2022-08-19T13:17:46;12.67;;;11.57;;
12253;SDS011;6189;52.526;13.390;2022-08-19T13:20:34;13.60;;;12.20;;
12253;SDS011;6189;52.526;13.390;2022-08-19T13:23:22;12.30;;;11.33;;
12253;SDS011;6189;52.526;13.390;2022-08-19T13:26:08;11.40;;;10.40;;
12253;SDS011;6189;52.526;13.390;2022-08-19T13:28:55;12.73;;;11.63;;
12253;SDS011;6189;52.526;13.390;2022-08-19T13:31:58;11.97;;;10.77;;
12253;SDS011;6189;52.526;13.390;2022-08-19T13:35:02;13.47;;;12.37;;
12253;SDS011;6189;52.526;13.390;2022-08-19T13:37:51;12.40;;;11.20;;
12253;SDS011;6189;52.526;13.390;2022-08-19T13:40:38;12.10;;;11.20;;
12253;SDS011;6189;52.526;13.390;2022-08-19T13:43:25;12.23;;;11.23;;
12253;SDS011;6189;52.526;13.390;2022-08-19T13:46:11;12.90;;;11.80;;
12253;SDS011;6189;52.526;13.390;2022-08-19T13:48:57;14.07;;;12.87;;
12253;SDS011;6189;52.526;13.390;2022-08-19T13:51:43;13.20;;;12.20;;
12253;SDS011;6189;52.526;13.390;2022-08-19T13:54:29;12.83;;;11.70;;
12253;SDS011;6189;52.526;13.390;2022-08-19T13:57:15;12.90;;;11.80;;
12253;SDS011;6189;52.526;13.390;2022-08-19T14:00:03;13.13;;;11.93;;
12253;SDS011;6189;52.526;13.390;2022-08-19T14:02:50;12.93;;;11.97;;
12253;SDS011;6189;52.526;13.390;2022-08-19T14:05:37;12.97;;;11.80;;
12253;SDS011;6189;52.526;13.390;2022-08-19T14:08:23;12.90;;;11.90;;
12253;SDS011;6189;52.526;13.390;2022-08-19T14:11:09;12.77;;;11.47;;
12253;SDS011;6189;52.526;13.390;2022-08-19T14:13:57;13.07;;;11.40;;
12253;SDS011;6189;52.526;13.390;2022-08-19T14:16:42;12.17;;;11.00;;
12253;SDS011;6189;52.526;13.390;2022-08-19T14:19:27;12.93;;;11.63;;
12253;SDS011;6189;52.526;13.390;2022-08-19T14:22:13;13.07;;;11.93;;
12253;SDS011;6189;52.526;13.390;2022-08-19T14:24:58;12.30;;;11.30;;
12253;SDS011;6189;52.526;13.390;2022-08-19T14:27:48;12.73;;;11.57;;
12253;SDS011;6189;52.526;13.390;2022-08-19T14:30:36;12.30;;;11.17;;
12253;SDS011;6189;52.526;13.390;2022-08-19T14:33:22;12.50;;;11.50;;
12253;SDS011;6189;52.526;13.390;2022-08-19T14:36:08;11.73;;;10.73;;
12253;SDS011;6189;52.526;13.390;2022-08-19T14:38:53;12.20;;;11.20;;
12253;SDS011;6189;52.526;13.390;2022-08-19T14:41:39;12.53;;;11.33;;
12253;SDS011;6189;52.526;13.390;2022-08-19T14:44:26;11.90;;;10.80;;
12253;SDS011;6189;52.526;13.390;2022-08-19T14:47:12;11.80;;;10.90;;
12253;SDS011;6189;52.526;13.390;2022-08-19T14:49:58;11.77;;;10.67;;
12253;SDS011;6189;52.526;13.390;2022-08-19T14:52:43;11.37;;;10.47;;
12253;SDS011;6189;52.526;13.390;2022-08-19T14:55:28;11.27;;;10.37;;
12253;SDS011;6189;52.526;13.390;2022-08-19T14:58:15;11.67;;;10.60;;
12253;SDS011;6189;52.526;13.390;2022-08-19T15:01:01;11.07;;;10.17;;
12253;SDS011;6189;52.526;13.390;2022-08-19T15:03:48;12.33;;;11.17;;
12253;SDS011;6189;52.526;13.390;2022-08-19T15:06:36;11.13;;;10.23;;
12253;SDS011;6189;52.526;13.390;2022-08-19T15:09:22;10.10;;;9.30;;
12253;SDS011;6189;52.526;13.390;2022-08-19T15:12:08;10.77;;;9.87;;
12253;SDS011;6189;52.526;13.390;2022-08-19T15:14:54;10.20;;;9.40;;
12253;SDS011;6189;52.526;13.390;2022-08-19T15:17:39;10.17;;;9.30;;
12253;SDS011;6189;52.526;13.390;2022-08-19T15:20:26;10.53;;;9.73;;
12253;SDS011;6189;52.526;13.390;2022-08-19T15:23:12;9.73;;;8.93;;
12253;SDS011;6189;52.526;13.390;2022-08-19T15:25:59;9.93;;;9.13;;
12253;SDS011;6189;52.526;13.390;2022-08-19T15:28:44;10.10;;;9.20;;
12253;SDS011;6189;52.526;13.390;2022-08-19T15:31:31;10.67;;;9.67;;
12253;SDS011;6189;52.526;13.390;2022-08-19T15:34:19;9.77;;;8.87;;
12253;SDS011;6189;52.526;13.390;2022-08-19T15:37:06;10.33;;;9.40;;
12253;SDS011;6189;52.526;13.390;2022-08-19T15:39:52;10.80;;;9.90;;
12253;SDS011;6189;52.526;13.390;2022-08-19T15:42:37;10.40;;;9.50;;
12253;SDS011;6189;52.526;13.390;2022-08-19T15:45:27;9.67;;;8.93;;
12253;SDS011;6189;52.526;13.390;2022-08-19T15:48:15;9.73;;;8.83;;
12253;SDS011;6189;52.526;13.390;2022-08-19T15:51:01;9.47;;;8.63;;
12253;SDS011;6189;52.526;13.390;2022-08-19T15:53:49;10.07;;;9.07;;
12253;SDS011;6189;52.526;13.390;2022-08-19T15:56:36;9.00;;;8.27;;
12253;SDS011;6189;52.526;13.390;2022-08-19T15:59:44;9.30;;;8.53;;
12253;SDS011;6189;52.526;13.390;2022-08-19T16:02:48;9.83;;;9.00;;
12253;SDS011;6189;52.526;13.390;2022-08-19T16:05:51;9.40;;;8.70;;
12253;SDS011;6189;52.526;13.390;2022-08-19T16:08:57;9.83;;;8.93;;
12253;SDS011;6189;52.526;13.390;2022-08-19T16:11:44;10.40;;;9.50;;
12253;SDS011;6189;52.526;13.390;2022-08-19T16:14:31;10.30;;;9.50;;
12253;SDS011;6189;52.526;13.390;2022-08-19T16:17:17;10.27;;;9.37;;
12253;SDS011;6189;52.526;13.390;2022-08-19T16:20:04;11.30;;;10.30;;